LFMNLFKF

Guest
Details From LFMN - Nice/Cote d'Azur
To LFKF - Figari Sud Corse
Flight Number -
Tags generated
Created
Modified
Stats Distance 154 nm / 285 km
Max Altitude 15,900 ft / 4,846 m
Waypoints 3
Social Downloads 0
Likes 0
Share VATSIM

Download

Looking for another format? Having issues loading an existing format? Contact us
Advertisement - Login to hide

Notes

Basic altitude profile: - Ascent Rate: 2500ft/min - Ascent Speed: 190kts - Cruise Altitude: 1200ft - Cruise Speed: 210kts - Descent Rate: 1500ft/min - Descent Speed: 190kts Options: - Use NATs: yes - Use PACOTS: yes - Use low airways: yes - Use high airways: yes

Route

LFMN ABRON LFKF

ID Type Via Altitude Latitude Longitude Leg Dist Tot Dist Heading (true) Name
O LFMN APT - 0 ft / 0 m 43.65798˚ 7.21536˚ - 0 nm - Nice/Cote d'Azur
ABRON FIX - 15,900 ft / 4,846 m 42.61417˚ 8.14778˚ 74 nm 74 nm 147° / 147° -
O LFKF APT - 0 ft / 0 m 41.50206˚ 9.09696˚ 79 nm 153 nm 147° / 148° Figari Sud Corse

Altitude Profile

Advertisement - Login to hide

LFMN

Details ICAO LFMN (NCE)
Name Nice/Cote d'Azur
Region France
Timezone Unknown (UTC+0.0)
Stats Elevation 12 ft / 4 m (AMSL)
Location 43.657981° 7.215362°
Runways 2
Magnetic Variation 2.016° E

METAR

LFMN 152200Z 27017KT 230V300 CAVOK 09/00 Q1000 NOSIG

Decode

TAF

TAF TAF AMD LFMN 152018Z 1521/1703 27010KT CAVOK TEMPO 1521/1524 33008KT BECMG 1600/1602 33012KT BECMG 1611/1613 24006KT BECMG 1616/1618 34012KT

Decode

Departure Runways

ID Width Length Bearing (true) Bearing (mag) Surface Threshold Offset Overrun Length
04L 148 ft / 45 m 8,427 ft / 2,569 m 44.85° 42.83° Asphalt 0 ft / 0 m 131 ft / 40 m
04R 148 ft / 45 m 9,720 ft / 2,963 m 44.60° 42.58° Asphalt 0 ft / 0 m 427 ft / 130 m
22L 148 ft / 45 m 9,720 ft / 2,963 m 224.62° 222.60° Asphalt 0 ft / 0 m 525 ft / 160 m
22R 148 ft / 45 m 8,427 ft / 2,569 m 224.87° 222.85° Asphalt 0 ft / 0 m 492 ft / 150 m

LFKF

Details ICAO LFKF (FSC)
Name Figari Sud Corse
Region France
Timezone Europe/Paris (UTC+1.0)
Stats Elevation 87 ft / 27 m (AMSL)
Location 41.502064° 9.096960°
Runways 1
Magnetic Variation 2.378° E

METAR

LFKF 152200Z AUTO 28018KT CAVOK 11/04 Q1004

Decode

TAF

TAF TAF LFKF 152130Z 1521/1615 CNL

Decode

Destination Runways

ID Width Length Bearing (true) Bearing (mag) Surface Threshold Offset Overrun Length
05 148 ft / 45 m 8,131 ft / 2,478 m 47.42° 45.04° Asphalt 0 ft / 0 m 0 ft / 0 m
23 148 ft / 45 m 8,131 ft / 2,478 m 227.44° 225.06° Asphalt 0 ft / 0 m 0 ft / 0 m

Approach Navaids

Runway Type Ident Frequency Range Bearing (true) Bearing (mag) Slope Elevation
23 Localiser GR 110.50 MHz 27 nm / 50 km 229.00° 226.62° - 87 ft / 27 m (AMSL)
23 Glidescope GR 110.50 MHz 27 nm / 50 km 229.00° 226.62° 3.50° 87 ft / 27 m (AMSL)
23 DME GR 110.50 MHz 18 nm / 33 km - - - 131 ft / 40 m (AMSL)

Popular Alternatives